METAR Data
IDs: Format: Raw Decoded Include TAF

Data at: 2142 UTC 06 Dec 2019

KLRO 062135Z AUTO 00000KT 7SM SCT045 BKN055 SCT080 15/15 A3014 RMK AO2
KLRO 062115Z AUTO 00000KT 2SM -RA FEW044 SCT055 BKN070 15/15 A3016 RMK AO2
KLRO 062055Z AUTO 00000KT 2 1/2SM -RA FEW004 BKN050 OVC085 15/15 A3017 RMK AO2 P0019
KLRO 062035Z AUTO 31007G15KT 5SM -RA FEW004 BKN048 OVC055 16/15 A3018 RMK AO2
KLRO 062015Z AUTO 29007KT 10SM BKN049 BKN055 OVC100 19/12 A3017 RMK AO2
KLRO 061955Z AUTO 00000KT 10SM FEW080 SCT100 SCT120 19/11 A3015 RMK AO2
KLRO 061935Z AUTO VRB04KT 10SM CLR 20/11 A3014 RMK AO2
KLRO 061915Z AUTO 13004KT 10SM CLR 20/11 A3015 RMK AO2
KLRO 061855Z AUTO 17005KT 10SM FEW055 21/11 A3016 RMK AO2
KLRO 061835Z AUTO 16004KT 10SM CLR 21/11 A3016 RMK AO2
KLRO 061815Z AUTO 00000KT 10SM CLR 21/11 A3016 RMK AO2
KLRO 061755Z AUTO VRB04KT 10SM CLR 21/11 A3016 RMK AO2
KLRO 061735Z AUTO 00000KT 10SM CLR 21/11 A3018 RMK AO2
KLRO 061715Z AUTO 11006KT 10SM CLR 21/11 A3018 RMK AO2
KLRO 061655Z AUTO VRB05KT 10SM CLR 21/10 A3019 RMK AO2
KLRO 061635Z AUTO VRB04KT 10SM CLR 20/10 A3020 RMK AO2
KLRO 061615Z AUTO VRB04G10KT 10SM CLR 20/10 A3021 RMK AO2
KLRO 061555Z AUTO VRB03KT 10SM CLR 20/10 A3022 RMK AO2
KLRO 061535Z AUTO VRB05KT 10SM CLR 19/10 A3023 RMK AO2
KLRO 061515Z AUTO 00000KT 10SM CLR 17/10 A3024 RMK AO2
KLRO 061455Z AUTO 00000KT 10SM CLR 15/10 A3024 RMK AO2
KLRO 061435Z AUTO 00000KT 10SM CLR 13/10 A3024 RMK AO2
KLRO 061415Z AUTO 00000KT 10SM CLR 11/10 A3023 RMK AO2
KLRO 061355Z AUTO 00000KT 10SM CLR 09/08 A3024 RMK AO2
KLRO 061335Z AUTO 00000KT 10SM CLR 07/07 A3024 RMK AO2
KLRO 061315Z AUTO 00000KT 10SM CLR 05/04 A3024 RMK AO2
KLRO 061255Z AUTO 00000KT 10SM CLR 03/03 A3024 RMK AO2
KLRO 061235Z AUTO 00000KT 10SM CLR 03/03 A3025 RMK AO2
KLRO 061215Z AUTO 00000KT 10SM CLR 02/02 A3025 RMK AO2
KLRO 061155Z AUTO 00000KT 10SM CLR 02/02 A3024 RMK AO2
KLRO 061135Z AUTO 00000KT 10SM CLR 02/02 A3024 RMK AO2
KLRO 061115Z AUTO 00000KT 10SM FEW036 02/02 A3023 RMK AO2
KLRO 061055Z AUTO 00000KT 10SM CLR 02/02 A3023 RMK AO2
KLRO 061035Z AUTO 00000KT 10SM CLR 02/02 A3023 RMK AO2
KLRO 061015Z AUTO 00000KT 10SM CLR 02/02 A3023 RMK AO2
KLRO 060955Z AUTO 00000KT 10SM CLR 02/01 A3023 RMK AO2
KLRO 060935Z AUTO 00000KT 10SM CLR 02/02 A3022 RMK AO2
KLRO 060915Z AUTO 00000KT 10SM CLR 02/02 A3022 RMK AO2
KLRO 060855Z AUTO 00000KT 10SM CLR 02/02 A3022 RMK AO2
KLRO 060835Z AUTO 00000KT 10SM CLR 02/02 A3022 RMK AO2
KLRO 060815Z AUTO 00000KT 10SM CLR 03/02 A3022 RMK AO2
KLRO 060755Z AUTO 00000KT 10SM CLR 02/02 A3022 RMK AO2
KLRO 060735Z AUTO 00000KT 10SM CLR 02/02 A3022 RMK AO2
KLRO 060715Z AUTO 00000KT 10SM CLR 03/03 A3022 RMK AO2
KLRO 060655Z AUTO 00000KT 10SM CLR 03/02 A3022 RMK AO2
KLRO 060635Z AUTO 00000KT 10SM CLR 03/03 A3022 RMK AO2
KLRO 060615Z AUTO 00000KT 10SM CLR 03/03 A3023 RMK AO2
KLRO 060555Z AUTO 00000KT 10SM CLR 03/03 A3024 RMK AO2
KLRO 060535Z AUTO 00000KT 10SM CLR 03/02 A3024 RMK AO2
KLRO 060455Z AUTO 00000KT 10SM CLR 04/03 A3023 RMK AO2
KLRO 060435Z AUTO 00000KT 10SM CLR 04/03 A3023 RMK AO2
KLRO 060415Z AUTO 00000KT 10SM CLR 04/03 A3023 RMK AO2
KLRO 060355Z AUTO 00000KT 10SM CLR 04/03 A3023 RMK AO2
KLRO 060335Z AUTO 00000KT 10SM CLR 04/04 A3022 RMK AO2
KLRO 060315Z AUTO 00000KT 10SM CLR 04/04 A3022 RMK AO2
KLRO 060255Z AUTO 00000KT 10SM CLR 05/04 A3021 RMK AO2
KLRO 060235Z AUTO 00000KT 10SM CLR 05/04 A3021 RMK AO2
KLRO 060215Z AUTO 00000KT 10SM CLR 05/05 A3021 RMK AO2
KLRO 060155Z AUTO 00000KT 10SM CLR 06/05 A3021 RMK AO2
KLRO 060135Z AUTO 00000KT 10SM CLR 06/05 A3020 RMK AO2
KLRO 060115Z AUTO 00000KT 10SM CLR 06/05 A3019 RMK AO2
KLRO 060055Z AUTO 00000KT 10SM CLR 06/05 A3019 RMK AO2
KLRO 060035Z AUTO 00000KT 10SM CLR 07/06 A3019 RMK AO2
KLRO 060015Z AUTO 00000KT 10SM CLR 07/06 A3018 RMK AO2
KLRO 052355Z AUTO 00000KT 10SM CLR 08/07 A3017 RMK AO2
KLRO 052335Z AUTO 00000KT 10SM CLR 08/07 A3017 RMK AO2
KLRO 052315Z AUTO 00000KT 10SM CLR 09/07 A3015 RMK AO2
KLRO 052255Z AUTO 00000KT 10SM CLR 10/07 A3015 RMK AO2
KLRO 052235Z AUTO 00000KT 10SM CLR 10/07 A3014 RMK AO2
KLRO 052215Z AUTO 00000KT 10SM CLR 12/07 A3013 RMK AO2
KLRO 052155Z AUTO 00000KT 10SM CLR 14/07 A3012 RMK AO2
KLRO 052135Z AUTO 00000KT 10SM CLR 15/06 A3011 RMK AO2
KLRO 052115Z AUTO 16003KT 10SM CLR 15/06 A3010 RMK AO2
KLRO 052055Z AUTO 00000KT 10SM CLR 16/07 A3010 RMK AO2
KLRO 052035Z AUTO 16005KT 10SM CLR 16/06 A3009 RMK AO2
KLRO 052015Z AUTO 00000KT 10SM CLR 19/M02 A3008 RMK AO2
KLRO 051955Z AUTO 00000KT 10SM CLR 19/M02 A3008 RMK AO2
KLRO 051935Z AUTO 00000KT 10SM CLR 19/M03 A3007 RMK AO2
KLRO 051915Z AUTO 00000KT 10SM CLR 19/M03 A3008 RMK AO2
KLRO 051855Z AUTO 33004KT 10SM CLR 19/M03 A3007 RMK AO2
KLRO 051835Z AUTO 32004KT 10SM CLR 19/M02 A3007 RMK AO2
KLRO 051815Z AUTO VRB04KT 10SM CLR 19/M03 A3007 RMK AO2
KLRO 051755Z AUTO 01004G11KT 10SM CLR 18/M01 A3008 RMK AO2
KLRO 051735Z AUTO VRB03G10KT 10SM CLR 18/M01 A3008 RMK AO2
KLRO 051715Z AUTO VRB04KT 10SM CLR 18/M01 A3009 RMK AO2
KLRO 051655Z AUTO 01006KT 10SM CLR 17/00 A3010 RMK AO2
KLRO 051635Z AUTO 36007KT 330V030 10SM CLR 17/M00 A3010 RMK AO2
KLRO 051615Z AUTO VRB06G12KT 10SM CLR 16/M00 A3011 RMK AO2
KLRO 051555Z AUTO 33009KT 300V360 10SM CLR 16/01 A3011 RMK AO2
KLRO 051535Z AUTO 33009KT 10SM CLR 15/01 A3011 RMK AO2
KLRO 051515Z AUTO 34009KT 320V020 10SM CLR 14/01 A3011 RMK AO2
KLRO 051455Z AUTO 34007G13KT 310V010 10SM CLR 14/01 A3010 RMK AO2
KLRO 051435Z AUTO 34007G13KT 300V020 10SM CLR 13/02 A3009 RMK AO2
KLRO 051415Z AUTO 34010KT 10SM CLR 12/02 A3008 RMK AO2
KLRO 051355Z AUTO 33005KT 10SM CLR 10/02 A3007 RMK AO2
KLRO 051335Z AUTO 32007KT 10SM CLR 10/02 A3006 RMK AO2
KLRO 051315Z AUTO 33006KT 10SM CLR 10/02 A3004 RMK AO2
KLRO 051255Z AUTO 32005KT 10SM CLR 09/02 A3003 RMK AO2
KLRO 051235Z AUTO 32006KT 10SM CLR 08/01 A3003 RMK AO2
KLRO 051215Z AUTO 32005KT 10SM CLR 08/01 A3002 RMK AO2
KLRO 051155Z AUTO 31004KT 10SM CLR 08/01 A3001 RMK AO2
KLRO 051135Z AUTO 31005KT 10SM CLR 09/01 A3000 RMK AO2
KLRO 051115Z AUTO 31006KT 10SM CLR 09/01 A2999 RMK AO2
KLRO 051055Z AUTO 31006G12KT 10SM CLR 09/02 A2998 RMK AO2
KLRO 051035Z AUTO 31005KT 10SM CLR 09/02 A2997 RMK AO2
KLRO 051015Z AUTO 31006KT 10SM CLR 09/02 A2995 RMK AO2
KLRO 050955Z AUTO 30005KT 10SM CLR 09/02 A2994 RMK AO2